Time;durP1;ratioP1;P1;durP2;ratioP2;P2;SDS_P1;SDS_P2;PMS_P1;PMS_P2;Temp;Humidity;BMP_temperature;BMP_pressure;BME280_temperature;BME280_humidity;BME280_pressure;Samples;Min_cycle;Max_cycle;Signal;HPM_P1;HPM_P2
2023/10/10 00:00:28;;;;;;;10.87;4.43;;;16.00;99.90;;;;;;5072758;28;20224;-58
2023/10/10 00:02:56;;;;;;;8.33;4.10;;;16.00;99.90;;;;;;5064710;28;20213;-59
2023/10/10 00:05:33;;;;;;;10.43;4.83;;;15.90;99.90;;;;;;5058827;28;20221;-58
2023/10/10 00:08:02;;;;;;;11.03;4.47;;;15.90;99.90;;;;;;5060821;28;20196;-58
2023/10/10 00:10:31;;;;;;;11.87;4.50;;;15.80;99.90;;;;;;5052724;28;20230;-58
2023/10/10 00:12:58;;;;;;;12.53;5.53;;;15.80;99.90;;;;;;5051022;28;20205;-58
2023/10/10 00:15:32;;;;;;;13.87;5.67;;;15.80;99.90;;;;;;5052539;28;20204;-58
2023/10/10 00:18:03;;;;;;;8.57;4.40;;;15.80;99.90;;;;;;5052518;28;20613;-58
2023/10/10 00:20:39;;;;;;;7.33;4.07;;;15.80;99.90;;;;;;5057232;28;20225;-58
2023/10/10 00:23:10;;;;;;;8.10;4.43;;;15.70;99.90;;;;;;5058832;28;20216;-58
2023/10/10 00:25:47;;;;;;;10.63;4.07;;;15.70;99.90;;;;;;5052266;28;20202;-58
2023/10/10 00:28:21;;;;;;;13.83;4.23;;;15.70;99.90;;;;;;5052566;28;20251;-58
2023/10/10 00:30:50;;;;;;;4.43;3.27;;;15.70;99.90;;;;;;5050496;28;20229;-59
2023/10/10 00:33:21;;;;;;;8.83;4.00;;;15.60;99.90;;;;;;5063216;28;20296;-59
2023/10/10 00:35:48;;;;;;;9.00;4.27;;;15.70;99.90;;;;;;5072165;28;20201;-59
2023/10/10 00:38:18;;;;;;;12.30;4.90;;;15.70;99.90;;;;;;5060221;28;20197;-58
2023/10/10 00:40:50;;;;;;;13.60;5.63;;;15.80;99.90;;;;;;5056362;28;20732;-58
2023/10/10 00:43:22;;;;;;;9.37;4.30;;;15.70;99.90;;;;;;5058768;28;20289;-58
2023/10/10 00:45:52;;;;;;;9.27;4.73;;;15.70;99.90;;;;;;5060522;28;20201;-58
2023/10/10 00:48:23;;;;;;;11.93;5.20;;;15.70;99.90;;;;;;5032022;28;20206;-58
2023/10/10 00:50:53;;;;;;;11.57;5.30;;;15.60;99.90;;;;;;5031745;28;20791;-59
2023/10/10 00:53:21;;;;;;;9.27;4.73;;;15.60;99.90;;;;;;5034971;28;20194;-59
2023/10/10 00:55:56;;;;;;;8.87;4.33;;;15.60;99.90;;;;;;5051882;28;20194;-58
2023/10/10 00:58:32;;;;;;;8.63;4.63;;;15.50;99.90;;;;;;5051852;28;20228;-58
2023/10/10 01:01:04;;;;;;;8.77;3.93;;;15.50;99.90;;;;;;5051562;28;20205;-58
2023/10/10 01:03:32;;;;;;;7.10;3.40;;;15.40;99.90;;;;;;5051258;28;20201;-58
2023/10/10 01:06:05;;;;;;;6.67;3.90;;;15.30;99.90;;;;;;5051681;28;20676;-59
2023/10/10 01:08:53;;;;;;;9.87;4.60;;;15.20;99.90;;;;;;5063116;28;20190;-58
2023/10/10 01:11:22;;;;;;;11.73;5.57;;;15.20;99.90;;;;;;5065390;28;20268;-58
2023/10/10 01:13:52;;;;;;;13.30;5.10;;;15.20;99.90;;;;;;5053435;28;20205;-58
2023/10/10 01:16:22;;;;;;;6.00;3.77;;;15.10;99.90;;;;;;5051488;28;20289;-58
2023/10/10 01:18:56;;;;;;;9.90;4.53;;;15.10;99.90;;;;;;5058304;28;20260;-59
2023/10/10 01:21:30;;;;;;;7.27;4.13;;;15.10;99.90;;;;;;5056530;28;20201;-58
2023/10/10 01:24:11;;;;;;;10.83;5.17;;;15.10;99.90;;;;;;5071256;28;20300;-58
2023/10/10 01:26:44;;;;;;;8.70;4.57;;;15.10;99.90;;;;;;5067428;28;20691;-58
2023/10/10 01:29:21;;;;;;;11.40;5.07;;;15.10;99.90;;;;;;5061800;28;20226;-59
2023/10/10 01:31:51;;;;;;;8.57;4.23;;;15.10;99.90;;;;;;5058910;28;20205;-58
2023/10/10 01:34:31;;;;;;;11.97;4.40;;;15.10;99.90;;;;;;5071180;28;20581;-58
2023/10/10 01:37:03;;;;;;;11.43;4.03;;;15.10;99.90;;;;;;5071459;28;20243;-58
2023/10/10 01:39:41;;;;;;;10.43;4.60;;;15.10;99.90;;;;;;5062437;28;20222;-58
2023/10/10 01:42:11;;;;;;;12.37;5.23;;;15.10;99.90;;;;;;5051125;28;20225;-58
2023/10/10 01:44:38;;;;;;;10.30;5.80;;;15.20;99.90;;;;;;5056946;28;20202;-58
2023/10/10 01:47:18;;;;;;;10.40;4.33;;;15.20;99.90;;;;;;5052790;28;20256;-59
2023/10/10 01:49:46;;;;;;;10.00;4.10;;;15.20;99.90;;;;;;5051127;28;20221;-58
2023/10/10 01:52:17;;;;;;;13.47;5.47;;;15.10;99.90;;;;;;5050801;28;20205;-58
2023/10/10 01:54:46;;;;;;;15.37;5.40;;;15.10;99.90;;;;;;5049707;28;20214;-58
2023/10/10 01:57:21;;;;;;;12.67;5.33;;;15.10;99.90;;;;;;5050533;28;20212;-58
2023/10/10 01:59:47;;;;;;;7.53;4.83;;;15.00;99.90;;;;;;5066983;28;20225;-59
2023/10/10 02:02:16;;;;;;;11.40;5.83;;;15.10;99.90;;;;;;5071138;28;20228;-59
2023/10/10 02:04:44;;;;;;;11.40;5.97;;;15.10;99.90;;;;;;5071082;28;20201;-58
2023/10/10 02:07:21;;;;;;;16.57;6.30;;;15.10;99.90;;;;;;5071248;28;20201;-58
2023/10/10 02:10:00;;;;;;;9.20;4.87;;;15.00;99.90;;;;;;5058717;28;20248;-58
2023/10/10 02:12:27;;;;;;;12.37;5.57;;;14.90;99.90;;;;;;5043588;28;20196;-58
2023/10/10 02:14:54;;;;;;;11.87;5.27;;;14.90;99.90;;;;;;5060798;28;20200;-59
2023/10/10 02:17:26;;;;;;;9.07;4.63;;;14.80;99.90;;;;;;5070902;28;20748;-58
2023/10/10 02:19:57;;;;;;;10.00;4.77;;;14.80;99.90;;;;;;5070946;28;20217;-58
2023/10/10 02:22:33;;;;;;;12.07;5.77;;;14.70;99.90;;;;;;5058109;28;20216;-59
2023/10/10 02:27:55;;;;;;;11.00;5.53;;;14.70;99.90;;;;;;5074613;28;20280;-58
2023/10/10 02:30:34;;;;;;;9.17;4.97;;;14.70;99.90;;;;;;5054495;28;20764;-58
2023/10/10 02:33:12;;;;;;;10.37;4.97;;;14.70;99.90;;;;;;5054149;28;20229;-58
2023/10/10 02:35:54;;;;;;;12.60;6.93;;;14.60;99.90;;;;;;5062573;28;20679;-60
2023/10/10 02:38:23;;;;;;;9.57;4.63;;;14.60;99.90;;;;;;5034839;28;20674;-58
2023/10/10 02:40:55;;;;;;;15.27;4.67;;;14.60;99.90;;;;;;5034509;28;20592;-59
2023/10/10 02:43:45;;;;;;;13.00;4.97;;;14.60;99.90;;;;;;5034312;28;20211;-58
2023/10/10 02:46:17;;;;;;;16.03;5.00;;;14.60;99.90;;;;;;5055357;28;20666;-58
2023/10/10 02:48:44;;;;;;;13.17;5.07;;;14.60;99.90;;;;;;5061274;28;20194;-58
2023/10/10 02:51:15;;;;;;;11.43;4.57;;;14.60;99.90;;;;;;5055467;28;20259;-58
2023/10/10 02:53:46;;;;;;;8.83;3.90;;;14.60;99.90;;;;;;5052319;28;20208;-59
2023/10/10 02:56:19;;;;;;;10.17;3.80;;;14.60;99.90;;;;;;5065060;28;20197;-58
2023/10/10 02:58:48;;;;;;;8.43;4.10;;;14.60;99.90;;;;;;5070383;28;20246;-58
2023/10/10 03:01:50;;;;;;;12.23;5.17;;;13.80;99.90;;;;;;5061550;28;20198;-58
2023/10/10 03:04:09;;;;;;;10.27;6.10;;;14.60;99.90;;;;;;5063808;28;20197;-58
2023/10/10 03:06:36;;;;;;;9.70;4.77;;;14.60;99.90;;;;;;5074360;28;20231;-58
2023/10/10 03:09:13;;;;;;;12.47;4.60;;;14.60;99.90;;;;;;5074060;28;20255;-58
2023/10/10 03:12:03;;;;;;;12.83;5.40;;;14.60;99.90;;;;;;5069999;28;20205;-58
2023/10/10 03:14:33;;;;;;;14.10;4.97;;;14.50;99.90;;;;;;5062237;28;20201;-58
2023/10/10 03:17:05;;;;;;;10.60;4.50;;;14.50;99.90;;;;;;5052432;28;20743;-58
2023/10/10 03:19:39;;;;;;;7.73;3.93;;;14.40;99.90;;;;;;5057423;28;20716;-58
2023/10/10 03:22:28;;;;;;;8.93;3.90;;;14.40;99.90;;;;;;5065443;28;20281;-58
2023/10/10 03:25:21;;;;;;;11.77;5.33;;;14.40;99.90;;;;;;5064531;28;20194;-58
2023/10/10 03:27:54;;;;;;;13.03;5.03;;;14.40;99.90;;;;;;5069649;28;20543;-58
2023/10/10 03:30:33;;;;;;;10.67;4.40;;;14.40;99.90;;;;;;5073783;28;20224;-58
2023/10/10 03:33:08;;;;;;;10.47;4.13;;;14.40;99.90;;;;;;5064942;28;20213;-58
2023/10/10 03:38:43;;;;;;;17.43;4.37;;;14.40;99.90;;;;;;5059491;28;20542;-58
2023/10/10 03:41:26;;;;;;;9.33;4.37;;;14.30;99.90;;;;;;5054922;28;20228;-58
2023/10/10 05:25:31;;;;;;;5.13;3.30;;;14.20;99.90;;;;;;5049802;28;20213;-59
2023/10/10 05:27:59;;;;;;;10.60;4.23;;;14.10;99.90;;;;;;5051221;28;20201;-58
2023/10/10 05:30:27;;;;;;;7.37;3.57;;;14.10;99.90;;;;;;5050924;28;20249;-59
2023/10/10 05:33:02;;;;;;;15.63;4.13;;;14.00;99.90;;;;;;5047885;28;20201;-59
2023/10/10 05:35:29;;;;;;;20.40;5.40;;;13.90;99.90;;;;;;5045153;28;20201;-59
2023/10/10 05:38:00;;;;;;;9.18;4.28;;;13.80;99.90;;;;;;5047707;28;20493;-59
2023/10/10 05:40:27;;;;;;;13.17;5.10;;;13.80;99.90;;;;;;5042762;28;20228;-66
2023/10/10 05:42:55;;;;;;;12.03;3.70;;;13.80;99.90;;;;;;5050825;28;20288;-66
2023/10/10 05:45:21;;;;;;;10.47;3.20;;;13.80;99.90;;;;;;5050825;28;20228;-65
2023/10/10 05:47:48;;;;;;;9.27;3.67;;;13.80;99.90;;;;;;5051272;28;20225;-65
2023/10/10 05:50:16;;;;;;;12.73;2.90;;;13.80;99.90;;;;;;5046367;28;20214;-68
2023/10/10 05:52:43;;;;;;;10.00;3.00;;;13.80;99.90;;;;;;5047668;28;20288;-68
2023/10/10 05:55:12;;;;;;;10.77;3.53;;;13.80;99.90;;;;;;5048150;28;20207;-67
2023/10/10 05:57:40;;;;;;;10.80;4.23;;;13.80;99.90;;;;;;5047592;28;20205;-68
2023/10/10 06:00:10;;;;;;;16.80;4.90;;;13.80;99.90;;;;;;5051499;28;20295;-68
2023/10/10 06:02:37;;;;;;;15.40;4.80;;;13.90;99.90;;;;;;5057494;28;20669;-68
2023/10/10 06:05:05;;;;;;;14.47;5.13;;;13.90;99.90;;;;;;5056943;28;20216;-67
2023/10/10 06:07:33;;;;;;;15.50;4.00;;;14.00;99.90;;;;;;5059197;28;20725;-68
2023/10/10 06:10:00;;;;;;;8.03;6.03;;;14.00;99.90;;;;;;5049336;28;20210;-68
2023/10/10 06:12:28;;;;;;;16.03;3.80;;;14.00;99.90;;;;;;5051741;28;20813;-69
2023/10/10 06:14:55;;;;;;;11.57;4.07;;;14.10;99.90;;;;;;5049440;28;20198;-67
2023/10/10 06:17:22;;;;;;;17.97;4.33;;;14.20;99.90;;;;;;5054599;28;20194;-68
2023/10/10 06:19:50;;;;;;;28.27;5.53;;;14.30;99.90;;;;;;5053383;28;20229;-71
2023/10/10 06:22:18;;;;;;;13.73;4.60;;;14.30;99.90;;;;;;5055660;28;20208;-69
2023/10/10 06:24:46;;;;;;;13.33;4.80;;;14.40;99.90;;;;;;5059246;28;20225;-69
2023/10/10 06:27:14;;;;;;;10.93;3.67;;;14.40;99.90;;;;;;5050553;28;20197;-57
2023/10/10 06:29:43;;;;;;;22.27;4.20;;;14.50;99.90;;;;;;5048354;28;20249;-57
2023/10/10 06:32:16;;;;;;;8.90;3.93;;;14.60;99.90;;;;;;5048607;28;20253;-57
2023/10/10 06:34:49;;;;;;;12.20;4.50;;;14.70;99.90;;;;;;5051369;28;20251;-57
2023/10/10 06:37:16;;;;;;;15.00;4.47;;;14.80;99.90;;;;;;5060234;28;20198;-57
2023/10/10 06:39:55;;;;;;;15.37;4.23;;;15.00;99.90;;;;;;5052133;28;20218;-58
2023/10/10 06:42:28;;;;;;;9.83;5.00;;;15.10;99.90;;;;;;5051699;28;20707;-57
2023/10/10 06:45:01;;;;;;;14.43;4.77;;;15.30;99.90;;;;;;5053109;28;20285;-57
2023/10/10 06:47:28;;;;;;;7.47;3.80;;;15.40;99.90;;;;;;5046429;28;20662;-57
2023/10/10 06:49:55;;;;;;;14.37;4.50;;;15.50;99.90;;;;;;5052371;28;20260;-58
2023/10/10 06:52:23;;;;;;;13.33;4.20;;;15.60;99.90;;;;;;5053182;28;20611;-57
2023/10/10 06:54:54;;;;;;;5.83;2.80;;;15.60;99.90;;;;;;5051470;28;20293;-57
2023/10/10 06:57:35;;;;;;;15.97;4.33;;;15.50;99.90;;;;;;5052819;28;20284;-57
2023/10/10 07:00:17;;;;;;;12.43;5.03;;;15.60;99.90;;;;;;5053809;28;20233;-58
2023/10/10 07:02:48;;;;;;;14.27;4.70;;;15.50;99.90;;;;;;5053396;28;20923;-57
2023/10/10 07:05:18;;;;;;;10.80;5.07;;;15.60;99.90;;;;;;5053816;28;20210;-57
2023/10/10 07:07:46;;;;;;;16.40;4.20;;;15.80;99.90;;;;;;5052926;28;20661;-57
2023/10/10 07:10:24;;;;;;;16.30;5.97;;;15.90;99.90;;;;;;5054252;28;20220;-57
2023/10/10 07:12:54;;;;;;;11.43;3.60;;;16.10;99.90;;;;;;5052905;28;20608;-57
2023/10/10 07:15:23;;;;;;;9.60;3.40;;;16.20;99.90;;;;;;5052593;28;20212;-57
2023/10/10 07:18:04;;;;;;;18.47;3.87;;;16.30;99.90;;;;;;5053116;28;20205;-57
2023/10/10 07:23:16;;;;;;;10.47;4.30;;;16.40;99.90;;;;;;5053020;28;20588;-57
2023/10/10 07:25:44;;;;;;;12.27;4.20;;;16.40;99.90;;;;;;5054054;28;20260;-57
2023/10/10 07:28:14;;;;;;;12.37;3.70;;;16.40;99.90;;;;;;5054365;28;20237;-57
2023/10/10 07:30:50;;;;;;;16.73;4.03;;;16.40;99.90;;;;;;5062862;28;20603;-57
2023/10/10 07:33:22;;;;;;;15.83;4.00;;;16.40;99.90;;;;;;5055735;28;20209;-58
2023/10/10 07:35:53;;;;;;;15.73;4.27;;;16.40;99.90;;;;;;5056850;28;20285;-57
2023/10/10 07:38:23;;;;;;;14.67;4.13;;;16.40;99.90;;;;;;5058932;28;21376;-57
2023/10/10 07:40:52;;;;;;;14.57;3.80;;;16.60;99.90;;;;;;5047976;28;20218;-57
2023/10/10 07:43:19;;;;;;;21.20;4.90;;;16.70;99.90;;;;;;5052167;28;20210;-57
2023/10/10 07:45:52;;;;;;;16.43;3.70;;;16.90;99.90;;;;;;5053103;28;20259;-57
2023/10/10 07:51:07;;;;;;;10.17;3.40;;;17.20;99.90;;;;;;5061029;28;20225;-57
2023/10/10 07:53:42;;;;;;;9.93;4.20;;;17.40;99.90;;;;;;5052307;28;20237;-57
2023/10/10 07:56:10;;;;;;;9.17;3.57;;;17.50;99.90;;;;;;5053177;28;20237;-57
2023/10/10 07:58:49;;;;;;;10.53;3.67;;;17.70;99.90;;;;;;5050962;28;20194;-57
2023/10/10 08:01:18;;;;;;;11.83;3.33;;;17.90;99.90;;;;;;5052345;28;20222;-57
2023/10/10 08:03:46;;;;;;;13.57;3.03;;;18.10;99.90;;;;;;5052383;28;20577;-57
2023/10/10 08:06:17;;;;;;;11.50;2.93;;;18.30;99.90;;;;;;5052410;28;20293;-57
2023/10/10 08:08:48;;;;;;;16.17;4.87;;;18.30;99.90;;;;;;5052827;28;20198;-57
2023/10/10 08:11:35;;;;;;;13.90;3.53;;;18.40;99.90;;;;;;5058612;28;20202;-57
2023/10/10 08:14:06;;;;;;;13.93;4.90;;;18.50;99.90;;;;;;5052014;28;20210;-57
2023/10/10 08:16:35;;;;;;;12.90;3.87;;;18.60;99.90;;;;;;5052245;28;20206;-57
2023/10/10 08:19:07;;;;;;;15.30;3.40;;;18.80;99.90;;;;;;5052217;28;20228;-58
2023/10/10 08:21:38;;;;;;;12.93;3.57;;;18.90;99.90;;;;;;5050429;28;20225;-58
2023/10/10 08:24:06;;;;;;;10.87;4.20;;;19.20;99.90;;;;;;5051424;28;20236;-58
2023/10/10 08:26:40;;;;;;;17.03;4.43;;;19.20;99.90;;;;;;5052410;28;20233;-57
2023/10/10 08:29:08;;;;;;;12.83;3.30;;;19.30;99.90;;;;;;5051924;28;20236;-58
2023/10/10 08:31:38;;;;;;;22.23;4.20;;;19.20;99.90;;;;;;5051238;28;20289;-58
2023/10/10 08:34:08;;;;;;;9.77;2.97;;;19.20;99.90;;;;;;5052083;28;20615;-58
2023/10/10 08:36:37;;;;;;;11.77;3.47;;;19.30;99.90;;;;;;5052265;28;20205;-57
2023/10/10 08:39:24;;;;;;;13.10;5.13;;;19.40;99.90;;;;;;5051702;28;20232;-58
2023/10/10 08:41:53;;;;;;;16.73;4.00;;;19.70;99.90;;;;;;5051306;28;20679;-57
2023/10/10 08:44:23;;;;;;;15.60;3.93;;;20.20;99.90;;;;;;5052043;28;20271;-57
2023/10/10 08:46:58;;;;;;;24.13;4.77;;;20.90;99.90;;;;;;5051733;28;20202;-58
2023/10/10 08:49:29;;;;;;;8.63;3.30;;;21.60;99.90;;;;;;5051023;28;20236;-57
2023/10/10 08:52:00;;;;;;;11.40;2.90;;;22.30;99.90;;;;;;5051465;28;20232;-58
2023/10/10 08:54:28;;;;;;;12.83;4.27;;;22.50;99.90;;;;;;5050203;28;20198;-58
2023/10/10 08:57:00;;;;;;;11.80;3.90;;;22.90;99.90;;;;;;5051914;28;20206;-58
2023/10/10 08:59:28;;;;;;;12.90;3.97;;;23.20;99.90;;;;;;5043659;28;20300;-58
2023/10/10 09:01:57;;;;;;;13.13;3.60;;;23.50;99.90;;;;;;5051208;28;20228;-58
2023/10/10 09:04:30;;;;;;;11.53;3.53;;;23.90;99.90;;;;;;5049763;28;20243;-58
2023/10/10 09:07:00;;;;;;;13.40;3.00;;;24.30;99.90;;;;;;5051384;28;20208;-58
2023/10/10 09:09:37;;;;;;;11.63;3.30;;;24.00;99.90;;;;;;5051527;28;20223;-58
2023/10/10 09:12:12;;;;;;;10.63;3.60;;;24.00;99.90;;;;;;5050846;28;20312;-58
2023/10/10 09:14:40;;;;;;;17.03;3.47;;;24.30;99.90;;;;;;5050253;28;20561;-58
2023/10/10 09:17:23;;;;;;;14.47;4.37;;;24.40;99.90;;;;;;5051170;28;20297;-58
2023/10/10 09:19:50;;;;;;;9.48;3.15;;;24.90;99.90;;;;;;5048661;28;20428;-57
2023/10/10 09:22:30;;;;;;;15.53;3.53;;;25.00;99.90;;;;;;5063544;22;20226;-62
2023/10/10 09:24:59;;;;;;;10.40;4.33;;;25.20;99.90;;;;;;5038990;28;20208;-64
2023/10/10 09:27:28;;;;;;;16.20;3.07;;;25.20;99.90;;;;;;5045610;28;20213;-63
2023/10/10 09:29:57;;;;;;;12.53;3.70;;;25.40;99.90;;;;;;5049416;28;20248;-54
2023/10/10 09:32:42;;;;;;;16.43;3.87;;;25.50;99.90;;;;;;5037848;28;20591;-60
2023/10/10 09:35:09;;;;;;;10.98;3.58;;;25.90;99.90;;;;;;5010020;28;20615;-62
2023/10/10 09:37:42;;;;;;;14.93;3.65;;;26.30;99.90;;;;;;5010198;28;20207;-61
2023/10/10 09:40:19;;;;;;;11.60;2.53;;;26.90;99.90;;;;;;5019594;28;20203;-61
2023/10/10 09:43:03;;;;;;;8.82;3.30;;;27.20;99.90;;;;;;5028208;28;20249;-63
2023/10/10 09:48:46;;;;;;;14.65;3.90;;;27.60;99.90;;;;;;5029758;28;20216;-63
2023/10/10 09:52:47;;;;;;;15.95;5.70;;;27.30;99.90;;;;;;5029797;28;20655;-62
2023/10/10 09:54:19;;;;;;;12.68;6.75;;;27.70;99.90;;;;;;5028282;28;20198;-63
2023/10/10 09:56:48;;;;;;;10.80;6.50;;;27.30;99.90;;;;;;5020501;28;20574;-62
2023/10/10 09:59:16;;;;;;;10.73;7.30;;;27.30;99.90;;;;;;5025346;28;20268;-58
2023/10/10 10:01:46;;;;;;;13.05;6.90;;;27.10;99.90;;;;;;5029623;28;20224;-59
2023/10/10 10:04:18;;;;;;;16.63;6.80;;;26.90;99.90;;;;;;5023872;28;20325;-61
2023/10/10 10:07:13;;;;;;;13.60;7.20;;;26.40;99.90;;;;;;5035646;28;20279;-58
2023/10/10 10:10:09;;;;;;;11.80;6.00;;;25.90;99.90;;;;;;5028256;28;20198;-59
2023/10/10 10:12:59;;;;;;;10.93;7.37;;;25.10;99.90;;;;;;5032681;28;20685;-61
2023/10/10 10:15:48;;;;;;;12.03;7.27;;;24.40;99.90;;;;;;5028716;28;20303;-61
2023/10/10 10:18:26;;;;;;;17.07;7.97;;;24.00;99.90;;;;;;5038035;28;20203;-64
2023/10/10 10:21:16;;;;;;;13.33;9.47;;;23.80;99.90;;;;;;5039374;28;20255;-64
2023/10/10 10:23:46;;;;;;;14.97;8.53;;;23.40;99.90;;;;;;5023305;28;20206;-62
2023/10/10 10:26:22;;;;;;;15.93;8.70;;;23.70;99.90;;;;;;5037060;28;20289;-61
2023/10/10 10:28:56;;;;;;;15.53;9.60;;;23.80;99.90;;;;;;5026613;28;20277;-60
2023/10/10 10:31:29;;;;;;;13.00;7.20;;;24.10;99.90;;;;;;5020338;28;20225;-64
2023/10/10 10:34:16;;;;;;;17.57;9.27;;;24.20;99.90;;;;;;5036863;28;20673;-55
2023/10/10 10:36:45;;;;;;;18.23;8.50;;;24.30;99.90;;;;;;5010278;28;20559;-56
2023/10/10 10:39:21;;;;;;;11.13;8.97;;;24.00;99.90;;;;;;5022912;28;20256;-56
2023/10/10 10:41:53;;;;;;;14.63;9.13;;;23.50;99.90;;;;;;5038079;28;20267;-56
2023/10/10 10:44:44;;;;;;;13.77;8.83;;;23.40;99.90;;;;;;5036824;28;20206;-56
2023/10/10 10:47:12;;;;;;;15.47;9.40;;;23.40;99.90;;;;;;5041789;28;20585;-55
2023/10/10 10:49:39;;;;;;;17.40;10.67;;;23.20;99.90;;;;;;5040526;28;20691;-55
2023/10/10 10:52:17;;;;;;;13.17;9.60;;;22.80;99.90;;;;;;5032830;28;20221;-55
2023/10/10 10:55:00;;;;;;;16.97;10.97;;;22.80;99.90;;;;;;5031391;28;20194;-57
2023/10/10 10:57:29;;;;;;;23.33;11.07;;;22.50;99.90;;;;;;5021502;28;20206;-57
2023/10/10 10:59:57;;;;;;;15.60;10.77;;;22.40;99.90;;;;;;5025038;28;20199;-58
2023/10/10 11:02:30;;;;;;;19.40;10.57;;;22.10;99.90;;;;;;5031990;28;20230;-58
2023/10/10 11:04:58;;;;;;;20.10;10.13;;;22.00;99.90;;;;;;5037437;28;20673;-59
2023/10/10 11:07:42;;;;;;;20.40;11.10;;;22.10;99.90;;;;;;5014605;28;20226;-58
2023/10/10 11:10:10;;;;;;;19.73;10.30;;;22.20;99.90;;;;;;5020281;28;20245;-59
2023/10/10 11:12:40;;;;;;;20.63;10.97;;;22.10;99.90;;;;;;5027701;28;20590;-60
2023/10/10 11:15:10;;;;;;;15.33;9.63;;;22.30;99.90;;;;;;5033379;28;20198;-58
2023/10/10 11:17:42;;;;;;;22.53;11.93;;;22.40;99.90;;;;;;5033437;28;20203;-59
2023/10/10 11:23:11;;;;;;;20.00;10.30;;;22.60;99.90;;;;;;4977029;28;20310;-58
2023/10/10 11:25:51;;;;;;;21.17;9.20;;;22.60;99.90;;;;;;5019693;28;20201;-56
2023/10/10 11:28:24;;;;;;;20.50;9.93;;;22.80;99.90;;;;;;5030414;28;20328;-60
2023/10/10 11:30:53;;;;;;;17.20;8.47;;;22.90;99.90;;;;;;5023720;28;20227;-58
2023/10/10 11:33:48;;;;;;;13.63;7.50;;;23.00;99.90;;;;;;5020160;28;20207;-59
2023/10/10 11:36:29;;;;;;;14.47;7.37;;;23.00;99.90;;;;;;5012798;28;20199;-58
2023/10/10 11:39:17;;;;;;;33.00;8.93;;;23.10;99.90;;;;;;5012585;28;20282;-59
2023/10/10 11:41:46;;;;;;;16.57;7.93;;;23.10;99.90;;;;;;5024025;28;20226;-59
2023/10/10 11:44:19;;;;;;;13.90;7.57;;;23.20;99.90;;;;;;5021753;28;20293;-60
2023/10/10 11:46:48;;;;;;;20.67;8.53;;;23.20;99.90;;;;;;5033074;28;20202;-60
2023/10/10 11:49:16;;;;;;;16.90;7.50;;;23.40;99.90;;;;;;5032225;28;20213;-63
2023/10/10 11:51:43;;;;;;;14.37;5.83;;;23.20;99.90;;;;;;5030981;28;20242;-61
2023/10/10 11:54:11;;;;;;;15.53;5.73;;;23.00;99.90;;;;;;5032121;28;20211;-62
2023/10/10 11:56:38;;;;;;;16.17;7.10;;;22.90;99.90;;;;;;5031364;28;20678;-62
2023/10/10 11:59:09;;;;;;;15.83;5.73;;;22.70;99.90;;;;;;5022685;28;20673;-65
2023/10/10 12:02:07;;;;;;;12.00;5.13;;;22.90;99.90;;;;;;5031802;28;20214;-63
2023/10/10 12:04:36;;;;;;;14.13;5.93;;;23.20;99.90;;;;;;5027619;28;20195;-63
2023/10/10 12:07:05;;;;;;;9.10;5.17;;;23.40;99.90;;;;;;5032280;28;20214;-63
2023/10/10 12:09:34;;;;;;;15.07;6.07;;;23.60;99.90;;;;;;5031936;28;20294;-59
2023/10/10 12:12:03;;;;;;;18.80;7.47;;;23.60;99.90;;;;;;5023206;28;20218;-58
2023/10/10 12:14:32;;;;;;;15.27;5.93;;;23.70;99.90;;;;;;5011944;28;20195;-60
2023/10/10 12:17:00;;;;;;;12.53;5.07;;;23.80;99.90;;;;;;5031508;28;20650;-58
2023/10/10 12:19:29;;;;;;;15.30;5.67;;;23.70;99.90;;;;;;5039613;28;20215;-62
2023/10/10 12:22:04;;;;;;;14.67;6.23;;;23.70;99.90;;;;;;5046361;28;20309;-58
2023/10/10 12:24:35;;;;;;;12.97;5.70;;;23.60;99.90;;;;;;5040924;28;20206;-60
2023/10/10 12:27:07;;;;;;;11.97;5.47;;;23.50;99.90;;;;;;5039858;28;20202;-59
2023/10/10 12:29:34;;;;;;;15.03;5.97;;;23.40;99.90;;;;;;5032883;28;20208;-60
2023/10/10 12:32:14;;;;;;;14.47;5.00;;;23.20;99.90;;;;;;5035405;28;20210;-58
2023/10/10 12:34:41;;;;;;;11.37;4.60;;;23.00;99.90;;;;;;5031375;28;20668;-54
2023/10/10 12:37:08;;;;;;;16.02;5.38;;;22.90;99.90;;;;;;5030701;28;20468;-60
2023/10/10 12:39:38;;;;;;;17.37;5.80;;;22.80;99.90;;;;;;5039029;28;20257;-60
2023/10/10 12:42:07;;;;;;;14.67;4.53;;;22.70;99.90;;;;;;5047328;28;20312;-60
2023/10/10 12:44:34;;;;;;;14.47;4.90;;;22.80;99.90;;;;;;5034866;28;20193;-54
2023/10/10 12:47:06;;;;;;;12.47;6.10;;;22.90;99.90;;;;;;5034084;28;20739;-54
2023/10/10 12:49:36;;;;;;;13.57;5.33;;;23.10;99.90;;;;;;5036815;28;20222;-53
2023/10/10 12:52:11;;;;;;;7.80;4.40;;;23.00;99.90;;;;;;5045866;28;20210;-54
2023/10/10 12:54:41;;;;;;;10.67;4.27;;;23.10;99.90;;;;;;5049913;28;20297;-54
2023/10/10 12:57:13;;;;;;;11.13;3.93;;;23.30;99.90;;;;;;5049893;28;20217;-54
2023/10/10 12:59:46;;;;;;;10.47;3.70;;;23.50;99.90;;;;;;5044718;28;20202;-54
2023/10/10 13:02:15;;;;;;;15.80;4.67;;;23.50;99.90;;;;;;5030986;28;20317;-54
2023/10/10 13:04:46;;;;;;;14.73;4.77;;;23.60;99.90;;;;;;5037975;28;20700;-54
2023/10/10 13:07:16;;;;;;;14.43;3.60;;;23.70;99.90;;;;;;5031397;28;20293;-54
2023/10/10 13:09:46;;;;;;;18.93;4.33;;;23.70;99.90;;;;;;5030459;28;20209;-55
2023/10/10 13:12:27;;;;;;;13.57;5.80;;;23.50;99.90;;;;;;5029599;28;20233;-54
2023/10/10 13:15:06;;;;;;;11.37;3.90;;;23.40;99.90;;;;;;5039059;28;20198;-54
2023/10/10 13:17:49;;;;;;;11.87;4.00;;;23.50;99.90;;;;;;5033108;28;20210;-54
2023/10/10 13:20:18;;;;;;;17.37;4.20;;;23.60;99.90;;;;;;5048547;28;20201;-54
2023/10/10 13:22:50;;;;;;;16.70;4.87;;;23.50;99.90;;;;;;5050316;28;20256;-54
2023/10/10 13:25:19;;;;;;;10.60;3.53;;;23.50;99.90;;;;;;5042367;28;20203;-53
2023/10/10 13:27:48;;;;;;;15.33;4.40;;;23.50;99.90;;;;;;5037021;28;20281;-54
2023/10/10 13:30:15;;;;;;;12.50;3.80;;;23.60;99.90;;;;;;5047073;28;20229;-54
2023/10/10 13:32:42;;;;;;;16.50;3.97;;;23.60;99.90;;;;;;5047395;28;20221;-53
2023/10/10 13:35:10;;;;;;;11.53;3.27;;;23.60;99.90;;;;;;5038427;28;20209;-54
2023/10/10 13:37:41;;;;;;;9.13;3.60;;;23.50;99.90;;;;;;5029603;28;20249;-55
2023/10/10 13:40:09;;;;;;;11.50;4.30;;;23.50;99.90;;;;;;5039086;28;20253;-54
2023/10/10 13:42:40;;;;;;;15.10;4.03;;;23.40;99.90;;;;;;5050087;28;20329;-54
2023/10/10 13:45:12;;;;;;;9.93;3.83;;;23.40;99.90;;;;;;5050410;28;20214;-54
2023/10/10 13:47:40;;;;;;;17.93;4.60;;;23.30;99.90;;;;;;5050711;28;20343;-54
2023/10/10 13:50:28;;;;;;;15.80;4.17;;;23.20;99.90;;;;;;5040204;28;20302;-54
2023/10/10 13:52:55;;;;;;;12.97;3.97;;;23.20;99.90;;;;;;5026421;28;20201;-54
2023/10/10 13:55:23;;;;;;;19.90;4.13;;;23.20;99.90;;;;;;5029305;28;20206;-54
2023/10/10 13:57:53;;;;;;;16.55;4.47;;;23.30;99.90;;;;;;5028227;28;20445;-58
2023/10/10 14:00:29;;;;;;;11.17;4.00;;;23.10;99.90;;;;;;5030097;28;20656;-60
2023/10/10 14:03:03;;;;;;;17.07;4.57;;;23.10;99.90;;;;;;5029263;28;20218;-60
2023/10/10 14:05:32;;;;;;;13.63;4.03;;;23.10;99.90;;;;;;5029950;28;20198;-58
2023/10/10 14:08:00;;;;;;;10.03;3.53;;;23.00;99.90;;;;;;5020465;28;20206;-59
2023/10/10 14:10:27;;;;;;;8.97;4.00;;;23.10;99.90;;;;;;5025210;28;20292;-59
2023/10/10 14:12:56;;;;;;;13.57;4.53;;;23.10;99.90;;;;;;5010013;28;20203;-58
2023/10/10 14:15:24;;;;;;;13.70;4.27;;;23.10;99.90;;;;;;5021542;28;20206;-58
2023/10/10 14:17:53;;;;;;;13.87;4.77;;;23.10;99.90;;;;;;5030103;28;20202;-58
2023/10/10 14:20:24;;;;;;;16.30;5.23;;;23.10;99.90;;;;;;5029267;28;20238;-61
2023/10/10 14:22:51;;;;;;;11.23;4.50;;;23.10;99.90;;;;;;5032367;28;20226;-61
2023/10/10 14:25:19;;;;;;;19.60;4.17;;;23.10;99.90;;;;;;5025493;28;20203;-61
2023/10/10 14:27:46;;;;;;;9.80;4.20;;;23.00;99.90;;;;;;5027911;28;21214;-61
2023/10/10 14:30:23;;;;;;;19.37;5.17;;;22.90;99.90;;;;;;5027727;28;20551;-61
2023/10/10 14:32:54;;;;;;;15.63;4.27;;;22.90;99.90;;;;;;5033361;28;20285;-62
2023/10/10 14:35:23;;;;;;;6.87;3.80;;;22.90;99.90;;;;;;5031860;28;20206;-62
2023/10/10 14:37:56;;;;;;;18.27;6.47;;;22.90;99.90;;;;;;5033728;28;20195;-62
2023/10/10 14:40:24;;;;;;;12.63;4.97;;;23.00;99.90;;;;;;5028739;28;20646;-55
2023/10/10 14:42:53;;;;;;;10.47;4.40;;;23.10;99.90;;;;;;5017980;28;20606;-55
2023/10/10 14:45:28;;;;;;;16.83;5.27;;;23.10;99.90;;;;;;5028002;28;20203;-55
2023/10/10 14:47:55;;;;;;;19.03;5.47;;;23.00;99.90;;;;;;5026846;28;20625;-56
2023/10/10 14:50:23;;;;;;;15.07;4.27;;;23.00;99.90;;;;;;5031907;28;20598;-56
2023/10/10 14:52:51;;;;;;;14.60;4.60;;;22.90;99.90;;;;;;5035091;28;20875;-56
2023/10/10 14:55:25;;;;;;;19.00;5.13;;;22.90;99.90;;;;;;5032652;28;20206;-55
2023/10/10 14:57:54;;;;;;;11.73;3.73;;;22.90;99.90;;;;;;5030943;28;20203;-56
2023/10/10 15:00:25;;;;;;;13.37;4.17;;;22.80;99.90;;;;;;5021918;28;20293;-57
2023/10/10 15:02:53;;;;;;;21.70;4.77;;;22.80;99.90;;;;;;5013074;28;20223;-56